createdAt,value
2022-11-01T00:00:52.945Z,12.55
2022-11-01T00:04:55.772Z,12.38
2022-11-01T00:08:57.570Z,11.90
2022-11-01T00:12:59.362Z,11.95
2022-11-01T00:17:01.195Z,11.90
2022-11-01T00:21:03.083Z,12.05
2022-11-01T00:25:05.236Z,12.48
2022-11-01T00:29:06.866Z,12.88
2022-11-01T00:33:08.836Z,12.75
2022-11-01T00:37:10.424Z,12.55
2022-11-01T00:41:12.888Z,12.20
2022-11-01T00:45:14.656Z,13.55
2022-11-01T00:49:16.223Z,13.32
2022-11-01T00:53:17.847Z,14.63
2022-11-01T00:57:19.526Z,14.43
2022-11-01T01:01:21.239Z,14.98
2022-11-01T01:05:22.907Z,14.43
2022-11-01T01:09:24.492Z,15.13
2022-11-01T01:13:26.090Z,16.83
2022-11-01T01:17:30.018Z,15.63
2022-11-01T01:21:34.561Z,18.00
2022-11-01T01:25:43.389Z,18.33
2022-11-01T01:29:45.317Z,18.38
2022-11-01T01:33:46.905Z,19.48
2022-11-01T01:37:48.518Z,18.52
2022-11-01T01:41:56.208Z,20.40
2022-11-01T01:45:57.792Z,21.60
2022-11-01T01:50:23.708Z,21.38
2022-11-01T01:54:25.313Z,20.00
2022-11-01T01:58:31.488Z,22.52
2022-11-01T02:06:35.723Z,22.13
2022-11-01T02:10:37.509Z,21.52
2022-11-01T02:14:42.304Z,22.20
2022-11-01T02:19:01.987Z,22.38
2022-11-01T02:23:45.865Z,22.83
2022-11-01T02:28:20.258Z,23.17
2022-11-01T02:32:54.312Z,23.27
2022-11-01T02:37:10.128Z,23.70
2022-11-01T02:41:27.619Z,22.80
2022-11-01T02:45:37.086Z,22.15
2022-11-01T02:49:44.946Z,24.35
2022-11-01T02:53:46.755Z,23.05
2022-11-01T02:57:49.778Z,25.40
2022-11-01T03:02:05.846Z,22.50
2022-11-01T03:06:33.769Z,23.65
2022-11-01T03:10:50.198Z,24.70
2022-11-01T03:19:13.289Z,23.73
2022-11-01T03:23:21.684Z,24.38
2022-11-01T03:27:41.533Z,22.88
2022-11-01T03:31:44.313Z,23.63
2022-11-01T03:35:49.565Z,23.17
2022-11-01T03:39:53.353Z,24.97
2022-11-01T03:43:55.665Z,23.05
2022-11-01T03:47:57.344Z,22.08
2022-11-01T03:51:59.544Z,23.85
2022-11-01T03:56:01.180Z,22.55
2022-11-01T04:00:02.905Z,24.60
2022-11-01T04:04:04.554Z,23.77
2022-11-01T04:08:07.750Z,21.60
2022-11-01T04:12:09.338Z,23.08
2022-11-01T04:16:29.745Z,21.38
2022-11-01T04:20:34.759Z,20.60
2022-11-01T04:24:36.331Z,21.50
2022-11-01T04:28:38.371Z,21.77
2022-11-01T04:32:44.147Z,22.63
2022-11-01T04:36:45.963Z,21.67
2022-11-01T04:40:47.578Z,22.52
2022-11-01T04:44:49.452Z,21.83
2022-11-01T04:48:51.200Z,21.88
2022-11-01T04:52:52.773Z,21.70
2022-11-01T04:56:54.489Z,22.65
2022-11-01T05:00:56.141Z,21.40
2022-11-01T05:04:57.788Z,20.90
2022-11-01T05:08:59.428Z,21.88
2022-11-01T05:13:02.301Z,20.05
2022-11-01T05:17:04.051Z,20.17
2022-11-01T05:21:05.740Z,21.48
2022-11-01T05:25:09.310Z,20.20
2022-11-01T05:29:24.469Z,20.30
2022-11-01T05:33:32.861Z,20.90
2022-11-01T05:37:35.826Z,20.27
2022-11-01T05:41:37.502Z,20.30
2022-11-01T05:45:39.072Z,20.95
2022-11-01T05:49:40.644Z,19.38
2022-11-01T05:53:42.315Z,20.40
2022-11-01T05:57:44.036Z,19.52
2022-11-01T06:01:45.798Z,18.98
2022-11-01T06:05:48.539Z,19.30
2022-11-01T06:09:50.122Z,20.67
2022-11-01T06:13:58.359Z,18.63
2022-11-01T06:18:00.533Z,18.95
2022-11-01T06:22:02.410Z,20.70
2022-11-01T06:26:05.334Z,20.10
2022-11-01T06:30:08.366Z,18.98
2022-11-01T06:34:10.141Z,19.73
2022-11-01T06:38:11.741Z,18.65
2022-11-01T06:42:13.392Z,17.27
2022-11-01T06:46:14.976Z,19.17
2022-11-01T06:50:17.026Z,18.40
2022-11-01T06:54:18.760Z,18.13
2022-11-01T06:58:20.499Z,19.10
2022-11-01T07:02:26.986Z,19.05
2022-11-01T07:06:31.272Z,18.35
2022-11-01T07:10:33.745Z,17.85
2022-11-01T07:14:35.342Z,19.25
2022-11-01T07:18:37.004Z,19.35
2022-11-01T07:22:38.567Z,18.77
2022-11-01T07:26:40.187Z,16.63
2022-11-01T07:30:42.037Z,17.17
2022-11-01T07:34:44.014Z,17.08
2022-11-01T07:43:22.213Z,17.77
2022-11-01T07:47:23.819Z,15.88
2022-11-01T07:51:25.457Z,16.33
2022-11-01T07:55:27.994Z,15.68
2022-11-01T07:59:29.911Z,17.13
2022-11-01T08:03:31.487Z,16.80
2022-11-01T08:07:38.423Z,14.95
2022-11-01T08:11:40.108Z,14.05
2022-11-01T08:15:41.740Z,15.02
2022-11-01T08:19:43.440Z,14.57
2022-11-01T08:23:45.887Z,14.60
2022-11-01T08:27:47.512Z,14.32
2022-11-01T08:31:49.256Z,12.32
2022-11-01T08:35:51.095Z,13.52
2022-11-01T08:39:52.717Z,13.20
2022-11-01T08:43:55.025Z,13.18
2022-11-01T08:48:01.333Z,12.88
2022-11-01T08:52:03.093Z,13.45
2022-11-01T08:56:04.984Z,13.00
2022-11-01T09:00:07.393Z,12.57
2022-11-01T09:04:09.228Z,11.35
2022-11-01T09:08:10.843Z,12.00
2022-11-01T09:12:14.634Z,11.18
2022-11-01T09:16:17.214Z,9.25
2022-11-01T09:20:19.231Z,9.32
2022-11-01T09:24:20.811Z,9.15
2022-11-01T09:28:22.394Z,9.50
2022-11-01T09:32:24.014Z,9.07
2022-11-01T09:36:26.481Z,9.27
2022-11-01T09:40:32.996Z,8.98
2022-11-01T09:44:39.536Z,8.45
2022-11-01T09:48:43.954Z,8.43
2022-11-01T09:52:45.640Z,8.60
2022-11-01T09:57:08.015Z,8.55
2022-11-01T10:01:42.521Z,8.90
2022-11-01T10:06:07.530Z,8.55
2022-11-01T10:10:35.691Z,9.02
2022-11-01T10:15:05.887Z,7.70
2022-11-01T10:19:18.938Z,7.28
2022-11-01T10:23:38.544Z,7.07
2022-11-01T10:27:47.084Z,6.82
2022-11-01T10:31:52.915Z,7.53
2022-11-01T10:36:05.702Z,7.15
2022-11-01T10:40:18.463Z,6.40
2022-11-01T10:44:33.051Z,6.65
2022-11-01T10:48:44.800Z,6.32
2022-11-01T10:53:03.157Z,6.85
2022-11-01T10:57:10.806Z,6.20
2022-11-01T11:01:18.895Z,6.18
2022-11-01T11:05:22.277Z,5.30
2022-11-01T11:09:38.761Z,5.25
2022-11-01T11:13:43.829Z,4.60
2022-11-01T11:17:49.872Z,5.53
2022-11-01T11:21:53.772Z,5.22
2022-11-01T11:26:07.933Z,4.85
2022-11-01T11:30:13.559Z,5.10
2022-11-01T11:34:32.098Z,4.72
2022-11-01T11:38:45.605Z,5.40
2022-11-01T11:42:49.070Z,4.95
2022-11-01T11:46:57.175Z,6.00
2022-11-01T11:51:06.078Z,5.10
2022-11-01T11:55:27.305Z,4.60
2022-11-01T11:59:31.045Z,3.42
2022-11-01T12:03:47.861Z,4.32
2022-11-01T12:07:58.515Z,3.67
2022-11-01T12:12:26.416Z,4.28
2022-11-01T12:20:39.429Z,3.88
2022-11-01T12:24:43.524Z,3.90
2022-11-01T12:28:53.529Z,3.75
2022-11-01T12:32:58.220Z,3.78
2022-11-01T12:37:29.286Z,3.92
2022-11-01T12:41:47.672Z,3.83
2022-11-01T12:46:04.726Z,3.40
2022-11-01T12:50:30.183Z,3.13
2022-11-01T12:54:39.933Z,3.58
2022-11-01T12:58:41.711Z,2.92
2022-11-01T13:03:32.928Z,2.95
2022-11-01T13:08:00.282Z,2.60
2022-11-01T13:12:15.051Z,3.03
2022-11-01T13:16:25.904Z,2.88
2022-11-01T13:20:30.223Z,2.17
2022-11-01T13:24:45.123Z,2.50
2022-11-01T13:28:58.986Z,2.25
2022-11-01T13:33:30.086Z,2.40
2022-11-01T13:37:43.603Z,2.17
2022-11-01T13:42:07.181Z,2.35
2022-11-01T13:46:29.848Z,2.45
2022-11-01T13:51:05.701Z,2.85
2022-11-01T13:55:19.353Z,1.88
2022-11-01T13:59:50.010Z,2.15
2022-11-01T14:04:21.861Z,2.15
2022-11-01T14:08:28.387Z,2.17
2022-11-01T14:12:43.287Z,1.92
2022-11-01T14:16:48.287Z,1.83
2022-11-01T14:20:52.478Z,1.67
2022-11-01T14:25:24.177Z,1.90
2022-11-01T14:29:25.805Z,1.60
2022-11-01T14:33:27.536Z,1.73
2022-11-01T14:37:38.313Z,1.70
2022-11-01T14:41:41.058Z,2.63
2022-11-01T14:45:46.688Z,1.55
2022-11-01T14:49:49.172Z,1.90
2022-11-01T14:54:00.876Z,1.67
2022-11-01T14:58:23.609Z,1.60
2022-11-01T15:02:28.090Z,1.58
2022-11-01T15:06:30.988Z,1.42
2022-11-01T15:10:42.186Z,1.80
2022-11-01T15:14:46.412Z,1.55
2022-11-01T15:18:54.744Z,1.42
2022-11-01T15:22:58.657Z,1.67
2022-11-01T15:27:35.205Z,1.15
2022-11-01T15:31:50.575Z,1.50
2022-11-01T15:36:05.229Z,1.63
2022-11-01T15:40:33.167Z,1.45
2022-11-01T15:44:34.771Z,1.45
2022-11-01T15:48:37.987Z,1.65
2022-11-01T15:52:39.689Z,1.40
2022-11-01T15:56:48.725Z,1.77
2022-11-01T16:00:59.396Z,1.92
2022-11-01T16:05:01.911Z,1.30
2022-11-01T16:09:08.881Z,1.40
2022-11-01T16:13:17.097Z,1.42
2022-11-01T16:17:22.714Z,1.63
2022-11-01T16:21:29.300Z,1.50
2022-11-01T16:25:33.787Z,1.48
2022-11-01T16:29:50.139Z,1.58
2022-11-01T16:37:53.939Z,1.35
2022-11-01T16:41:56.315Z,1.40
2022-11-01T16:45:58.973Z,1.33
2022-11-01T16:50:00.632Z,1.40
2022-11-01T16:54:02.237Z,1.30
2022-11-01T16:58:04.296Z,1.65
2022-11-01T17:02:19.448Z,1.40
2022-11-01T17:06:21.301Z,1.30
2022-11-01T17:10:30.780Z,1.23
2022-11-01T17:14:35.183Z,1.00
2022-11-01T17:18:41.450Z,1.33
2022-11-01T17:22:43.756Z,0.90
2022-11-01T17:26:48.373Z,1.17
2022-11-01T17:30:50.789Z,1.00
2022-11-01T17:34:53.575Z,1.20
2022-11-01T17:38:55.167Z,1.05
2022-11-01T17:42:56.803Z,1.40
2022-11-01T17:46:59.402Z,1.20
2022-11-01T17:51:01.095Z,1.20
2022-11-01T17:55:02.675Z,1.70
2022-11-01T17:59:04.603Z,1.00
2022-11-01T18:03:06.270Z,0.90
2022-11-01T18:07:10.661Z,1.05
2022-11-01T18:11:38.047Z,1.02
2022-11-01T18:15:44.147Z,1.23
2022-11-01T18:20:00.143Z,1.05
2022-11-01T18:24:13.482Z,0.90
2022-11-01T18:28:30.124Z,1.05
2022-11-01T18:32:49.241Z,1.35
2022-11-01T18:37:35.556Z,0.93
2022-11-01T18:41:37.129Z,1.10
2022-11-01T18:45:52.782Z,1.10
2022-11-01T18:50:05.349Z,0.82
2022-11-01T18:54:09.691Z,1.15
2022-11-01T18:58:23.664Z,1.25
2022-11-01T19:02:28.120Z,1.05
2022-11-01T19:06:32.665Z,1.08
2022-11-01T19:10:35.239Z,1.20
2022-11-01T19:14:37.817Z,1.05
2022-11-01T19:18:43.315Z,1.60
2022-11-01T19:22:45.231Z,1.13
2022-11-01T19:26:46.880Z,1.65
2022-11-01T19:30:52.472Z,1.33
2022-11-01T19:34:55.332Z,1.85
2022-11-01T19:38:56.902Z,1.30
2022-11-01T19:43:08.966Z,1.40
2022-11-01T19:47:38.120Z,1.20
2022-11-01T19:51:39.720Z,1.40
2022-11-01T19:55:46.220Z,1.30
2022-11-01T19:59:48.038Z,1.50
2022-11-01T20:03:58.143Z,1.20
2022-11-01T20:08:12.692Z,1.00
2022-11-01T20:12:18.635Z,1.15
2022-11-01T20:16:23.184Z,1.38
2022-11-01T20:20:25.098Z,1.05
2022-11-01T20:24:30.873Z,1.13
2022-11-01T20:28:32.675Z,1.30
2022-11-01T20:32:34.299Z,1.10
2022-11-01T20:36:36.144Z,1.73
2022-11-01T20:40:37.785Z,1.20
2022-11-01T20:44:39.365Z,1.35
2022-11-01T20:48:41.031Z,1.38
2022-11-01T20:52:43.161Z,1.60
2022-11-01T20:56:44.739Z,1.30
2022-11-01T21:00:46.328Z,1.60
2022-11-01T21:04:54.882Z,1.00
2022-11-01T21:08:57.703Z,1.80
2022-11-01T21:13:00.900Z,1.00
2022-11-01T21:17:16.842Z,1.27
2022-11-01T21:21:19.795Z,1.33
2022-11-01T21:25:22.896Z,1.52
2022-11-01T21:29:28.198Z,1.58
2022-11-01T21:33:38.678Z,1.87
2022-11-01T21:37:40.639Z,1.17
2022-11-01T21:41:45.155Z,1.70
2022-11-01T21:45:46.920Z,1.00
2022-11-01T21:49:49.519Z,1.33
2022-11-01T21:53:51.103Z,1.30
2022-11-01T21:57:52.673Z,1.50
2022-11-01T22:01:55.970Z,1.02
2022-11-01T22:05:57.933Z,1.38
2022-11-01T22:09:59.804Z,1.42
2022-11-01T22:14:01.408Z,1.20
2022-11-01T22:18:03.053Z,1.40
2022-11-01T22:22:04.634Z,1.10
2022-11-01T22:26:06.441Z,1.13
2022-11-01T22:30:08.752Z,1.25
2022-11-01T22:34:10.395Z,1.30
2022-11-01T22:38:22.555Z,1.30
2022-11-01T22:42:26.261Z,1.02
2022-11-01T22:46:37.801Z,1.40
2022-11-01T22:50:39.372Z,1.20
2022-11-01T22:54:42.841Z,1.38
2022-11-01T22:58:44.494Z,1.30
2022-11-01T23:02:47.432Z,1.15
2022-11-01T23:06:50.651Z,1.42
2022-11-01T23:10:52.924Z,1.23
2022-11-01T23:14:55.411Z,1.25
2022-11-01T23:18:59.891Z,0.80
2022-11-01T23:23:01.752Z,1.38
2022-11-01T23:27:03.699Z,1.33
2022-11-01T23:31:05.680Z,1.17
2022-11-01T23:35:14.639Z,1.33
2022-11-01T23:39:16.265Z,1.23
2022-11-01T23:43:24.295Z,1.27
2022-11-01T23:47:39.621Z,1.38
2022-11-01T23:51:41.421Z,1.40
2022-11-01T23:55:49.797Z,1.23
2022-11-01T23:59:51.848Z,1.23
